Time;durP1;ratioP1;P1;durP2;ratioP2;P2;SDS_P1;SDS_P2;PMS_P1;PMS_P2;Temp;Humidity;BMP_temperature;BMP_pressure;BME280_temperature;BME280_humidity;BME280_pressure;Samples;Min_cycle;Max_cycle;Signal;HPM_P1;HPM_P2
2021/05/26 00:00:08;;;;;;;5.55;2.20;;;;;;;10.00;72.47;98959.25;3609204;39;20054;-63
2021/05/26 00:02:36;;;;;;;4.47;2.25;;;;;;;10.00;72.34;98956.59;3599595;39;20044;-64
2021/05/26 00:05:06;;;;;;;3.33;2.03;;;;;;;10.03;72.57;98956.22;3609591;39;20301;-63
2021/05/26 00:07:34;;;;;;;5.60;2.80;;;;;;;10.08;72.24;98947.72;3609499;39;20051;-63
2021/05/26 00:10:01;;;;;;;4.28;2.08;;;;;;;10.11;72.04;98942.91;3600617;39;20066;-63
2021/05/26 00:12:29;;;;;;;3.78;2.10;;;;;;;10.12;72.18;98934.00;3609074;39;20320;-63
2021/05/26 00:14:57;;;;;;;4.90;2.10;;;;;;;10.14;72.36;98933.78;3609832;39;20058;-63
2021/05/26 00:17:24;;;;;;;3.30;1.55;;;;;;;10.17;72.33;98931.59;3609059;39;20048;-63
2021/05/26 00:19:51;;;;;;;3.65;2.33;;;;;;;10.20;72.21;98930.38;3599948;39;20043;-63
2021/05/26 00:22:18;;;;;;;7.68;2.50;;;;;;;10.24;71.98;98926.38;3609160;39;20039;-63
2021/05/26 00:24:46;;;;;;;2.35;1.73;;;;;;;10.25;72.11;98924.59;3609240;39;20118;-63
2021/05/26 00:27:13;;;;;;;5.35;1.60;;;;;;;10.24;72.13;98921.09;3608898;39;20050;-63
2021/05/26 00:29:40;;;;;;;2.72;1.67;;;;;;;10.22;72.02;98917.00;3608982;39;20124;-64
2021/05/26 00:32:09;;;;;;;6.90;1.85;;;;;;;10.07;72.15;98912.56;3609134;39;20047;-64
2021/05/26 00:34:37;;;;;;;4.10;1.85;;;;;;;10.02;72.58;98904.41;3609081;39;20048;-62
2021/05/26 00:37:05;;;;;;;6.03;2.08;;;;;;;10.04;72.72;98902.41;3599785;39;20048;-62
2021/05/26 00:39:32;;;;;;;4.47;1.85;;;;;;;10.04;72.98;98901.56;3609196;39;20055;-63
2021/05/26 00:42:00;;;;;;;3.17;2.10;;;;;;;10.09;73.15;98907.94;3600163;39;20090;-63
2021/05/26 00:44:27;;;;;;;6.65;2.38;;;;;;;10.15;72.50;98903.72;3609667;39;20037;-63
2021/05/26 00:46:55;;;;;;;5.05;1.70;;;;;;;10.20;72.15;98900.50;3609287;39;20048;-64
2021/05/26 00:49:23;;;;;;;3.63;1.98;;;;;;;10.25;71.62;98893.72;3609704;39;20051;-63
2021/05/26 00:51:50;;;;;;;5.40;1.90;;;;;;;10.34;71.01;98894.41;3600057;39;20047;-63
2021/05/26 00:54:18;;;;;;;4.93;2.08;;;;;;;10.35;70.94;98891.56;3599845;39;20325;-63
2021/05/26 00:56:45;;;;;;;1.73;1.40;;;;;;;10.35;70.63;98890.75;3609382;39;20023;-63
2021/05/26 00:59:14;;;;;;;5.47;1.63;;;;;;;10.31;70.30;98886.84;3608866;39;20043;-63
2021/05/26 01:01:43;;;;;;;4.47;2.03;;;;;;;10.35;70.33;98883.63;3600172;39;20129;-63
2021/05/26 01:04:10;;;;;;;5.65;1.80;;;;;;;10.36;69.99;98877.34;3599742;39;20048;-63
2021/05/26 01:06:44;;;;;;;4.35;1.92;;;;;;;10.38;70.14;98875.34;3600368;39;20051;-63
2021/05/26 01:09:12;;;;;;;4.55;1.50;;;;;;;10.40;70.04;98872.50;3609502;39;20076;-63
2021/05/26 01:11:39;;;;;;;3.45;1.50;;;;;;;10.40;69.88;98867.19;3613243;39;20058;-63
2021/05/26 01:14:08;;;;;;;7.32;2.10;;;;;;;10.41;70.28;98869.69;3603287;39;20052;-63
2021/05/26 01:16:35;;;;;;;8.05;2.42;;;;;;;10.44;69.91;98871.09;3601124;39;20055;-63
2021/05/26 01:19:03;;;;;;;3.33;1.95;;;;;;;10.43;69.85;98869.47;3601070;39;20140;-63
2021/05/26 01:21:32;;;;;;;3.88;1.60;;;;;;;10.43;69.50;98863.38;3600201;39;20352;-63
2021/05/26 01:24:00;;;;;;;7.43;1.83;;;;;;;10.43;69.28;98863.38;3609118;39;20044;-63
2021/05/26 01:26:35;;;;;;;6.97;1.73;;;;;;;10.33;69.08;98871.63;3600898;39;20040;-63
2021/05/26 01:29:02;;;;;;;4.40;1.48;;;;;;;10.25;69.51;98874.41;3610160;39;20062;-63
2021/05/26 01:31:30;;;;;;;7.10;1.88;;;;;;;10.25;69.61;98848.78;3601593;39;20054;-64
2021/05/26 01:34:03;;;;;;;4.57;2.75;;;;;;;10.20;69.89;98861.69;3611244;39;20050;-70
2021/05/26 01:36:35;;;;;;;6.60;2.08;;;;;;;10.23;69.87;98860.50;3610915;39;20044;-63
2021/05/26 01:39:06;;;;;;;3.72;1.88;;;;;;;10.16;70.01;98849.88;3610726;39;20056;-63
2021/05/26 01:41:34;;;;;;;4.55;1.70;;;;;;;10.15;69.91;98850.88;3601487;39;20423;-64
2021/05/26 01:44:03;;;;;;;3.17;1.60;;;;;;;10.16;69.70;98852.50;3611141;39;20080;-63
2021/05/26 01:46:30;;;;;;;7.18;1.85;;;;;;;10.15;69.61;98849.06;3610266;39;20132;-64
2021/05/26 01:48:58;;;;;;;3.88;1.55;;;;;;;10.14;69.77;98842.16;3600382;39;20047;-63
2021/05/26 01:51:26;;;;;;;5.72;1.55;;;;;;;10.17;69.81;98836.50;3600986;39;20064;-63
2021/05/26 01:53:55;;;;;;;3.88;1.70;;;;;;;10.20;69.90;98840.56;3609862;39;20048;-64
2021/05/26 01:56:26;;;;;;;5.85;1.95;;;;;;;10.16;69.88;98828.75;3600563;39;20101;-63
2021/05/26 01:59:01;;;;;;;5.07;2.08;;;;;;;10.16;69.70;98816.38;3600473;39;20047;-63
2021/05/26 02:01:32;;;;;;;3.65;1.65;;;;;;;10.20;69.87;98813.34;3601347;39;20054;-63
2021/05/26 02:04:04;;;;;;;3.30;1.58;;;;;;;10.20;70.14;98805.41;3610183;39;20323;-63
2021/05/26 02:06:32;;;;;;;4.90;1.58;;;;;;;10.14;70.02;98809.63;3610247;39;20044;-63
2021/05/26 02:09:00;;;;;;;4.63;2.00;;;;;;;10.15;70.46;98806.78;3609996;39;20054;-63
2021/05/26 02:14:19;;;;;;;6.03;1.90;;;;;;;10.23;70.46;98812.97;3603233;39;20084;-64
2021/05/26 02:16:56;;;;;;;4.32;1.73;;;;;;;10.21;70.08;98810.53;3603607;39;20055;-63
2021/05/26 02:19:24;;;;;;;3.88;1.90;;;;;;;10.18;70.65;98816.19;3601806;39;20047;-64
2021/05/26 02:21:53;;;;;;;8.73;2.75;;;;;;;10.17;70.82;98822.47;3600537;39;20032;-63
2021/05/26 02:24:20;;;;;;;2.92;1.40;;;;;;;10.13;70.74;98821.22;3600515;39;20405;-63
2021/05/26 02:26:49;;;;;;;3.58;1.95;;;;;;;10.15;71.08;98811.25;3600734;39;20043;-63
2021/05/26 02:29:16;;;;;;;4.38;1.90;;;;;;;10.18;71.05;98803.78;3600404;39;20058;-62
2021/05/26 02:31:43;;;;;;;4.85;2.75;;;;;;;10.21;71.02;98793.84;3610142;39;20074;-62
2021/05/26 02:34:13;;;;;;;4.45;2.08;;;;;;;10.19;70.81;98794.03;3600494;39;20047;-62
2021/05/26 02:36:41;;;;;;;5.28;1.98;;;;;;;10.15;71.32;98790.94;3600476;39;20047;-63
2021/05/26 02:39:10;;;;;;;6.47;1.90;;;;;;;10.15;71.28;98779.56;3601413;39;20047;-63
2021/05/26 02:41:39;;;;;;;3.38;2.08;;;;;;;10.16;71.44;98773.25;3601208;39;20405;-62
2021/05/26 02:44:09;;;;;;;4.55;2.58;;;;;;;10.17;71.62;98770.44;3628216;23;20036;-64
2021/05/26 02:46:37;;;;;;;5.45;2.47;;;;;;;10.15;71.29;98769.00;3599871;40;20052;-65
2021/05/26 02:49:06;;;;;;;10.30;2.75;;;;;;;10.09;71.84;98759.22;3599265;40;20055;-65
2021/05/26 02:51:34;;;;;;;6.82;2.65;;;;;;;10.12;71.53;98758.81;3599691;40;20400;-65
2021/05/26 02:54:02;;;;;;;7.03;3.25;;;;;;;10.10;71.47;98755.56;3599644;40;20356;-65
2021/05/26 02:56:30;;;;;;;5.45;2.28;;;;;;;10.07;72.04;98750.66;3590243;40;20074;-65
2021/05/26 02:59:18;;;;;;;5.68;2.40;;;;;;;10.11;72.32;98757.19;3599797;40;20493;-65
2021/05/26 03:02:20;;;;;;;6.22;2.28;;;;;;;10.20;71.98;98757.84;3590228;40;20301;-65
2021/05/26 03:04:53;;;;;;;3.28;1.58;;;;;;;10.12;71.55;98757.00;3590069;40;20048;-65
2021/05/26 03:07:20;;;;;;;6.03;2.67;;;;;;;10.09;71.82;98751.28;3599403;40;20059;-65
2021/05/26 03:09:48;;;;;;;4.72;2.47;;;;;;;10.08;71.70;98747.00;3589835;40;20124;-65
2021/05/26 03:12:17;;;;;;;4.93;2.42;;;;;;;10.10;71.80;98745.81;3590008;40;20044;-65
2021/05/26 03:14:55;;;;;;;6.53;2.42;;;;;;;10.10;71.66;98745.00;3599297;40;20432;-63
2021/05/26 03:17:27;;;;;;;6.38;2.08;;;;;;;10.06;71.76;98743.72;3598847;40;20048;-64
2021/05/26 03:19:57;;;;;;;6.30;2.40;;;;;;;10.07;72.15;98750.66;3599387;40;20044;-65
2021/05/26 03:22:30;;;;;;;5.22;3.30;;;;;;;10.09;72.14;98743.38;3599493;40;20044;-65
2021/05/26 03:25:17;;;;;;;7.47;3.30;;;;;;;10.05;72.25;98747.38;3599439;40;20056;-65
2021/05/26 03:27:52;;;;;;;6.47;3.30;;;;;;;10.07;72.11;98753.28;3589806;40;20059;-65
2021/05/26 03:30:21;;;;;;;9.63;3.15;;;;;;;10.04;72.14;98751.84;3600847;40;20048;-65
2021/05/26 03:32:49;;;;;;;4.82;2.92;;;;;;;9.96;72.01;98745.88;3601798;40;20048;-65
2021/05/26 03:35:17;;;;;;;6.53;2.85;;;;;;;9.92;72.37;98737.53;3594158;40;20337;-64
2021/05/26 03:37:45;;;;;;;5.60;2.10;;;;;;;9.87;72.37;98731.97;3602118;40;20526;-64
2021/05/26 03:40:15;;;;;;;6.18;3.45;;;;;;;9.86;72.40;98725.06;3590952;40;20048;-63
2021/05/26 03:42:48;;;;;;;3.83;2.03;;;;;;;9.88;72.36;98725.72;3590991;40;20403;-63
2021/05/26 03:45:31;;;;;;;6.40;2.40;;;;;;;9.87;72.63;98724.88;3591277;40;20069;-63
2021/05/26 03:47:58;;;;;;;4.50;2.13;;;;;;;9.87;72.33;98722.22;3591514;40;20040;-63
2021/05/26 03:50:28;;;;;;;6.60;2.25;;;;;;;9.87;72.44;98724.06;3600563;40;20055;-63
2021/05/26 03:52:56;;;;;;;5.55;2.08;;;;;;;9.86;72.72;98717.97;3599885;40;20079;-64
2021/05/26 03:55:26;;;;;;;2.03;1.63;;;;;;;9.83;72.72;98718.34;3590310;40;20044;-64
2021/05/26 03:58:15;;;;;;;6.35;2.50;;;;;;;9.79;72.89;98721.56;3590801;40;20044;-64
2021/05/26 04:00:43;;;;;;;4.20;2.00;;;;;;;9.78;73.04;98723.38;3600300;40;20025;-63
2021/05/26 04:03:17;;;;;;;10.77;2.90;;;;;;;9.79;73.08;98718.91;3589887;40;20036;-64
2021/05/26 04:05:45;;;;;;;9.32;3.25;;;;;;;9.76;73.42;98708.75;3599247;40;20412;-64
2021/05/26 04:08:12;;;;;;;11.13;2.40;;;;;;;9.76;73.31;98698.19;3589595;40;20055;-64
2021/05/26 04:10:40;;;;;;;5.90;2.20;;;;;;;9.75;73.41;98707.91;3590042;40;20060;-64
2021/05/26 04:13:24;;;;;;;4.85;2.30;;;;;;;9.71;73.33;98703.19;3589572;40;20406;-64
2021/05/26 04:15:57;;;;;;;3.55;2.30;;;;;;;9.73;73.52;98698.56;3599160;40;20028;-65
2021/05/26 04:18:24;;;;;;;6.57;2.47;;;;;;;9.75;73.77;98699.19;3599194;40;20048;-64
2021/05/26 04:20:52;;;;;;;4.95;2.20;;;;;;;9.74;73.90;98687.00;3589410;40;20051;-64
2021/05/26 04:23:20;;;;;;;4.40;2.15;;;;;;;9.79;74.11;98680.13;3589729;40;20110;-64
2021/05/26 04:26:01;;;;;;;6.95;2.30;;;;;;;9.82;73.82;98677.09;3599072;40;20326;-64
2021/05/26 04:28:28;;;;;;;7.38;2.47;;;;;;;9.90;73.92;98668.25;3598585;40;20055;-64
2021/05/26 04:30:58;;;;;;;5.93;2.45;;;;;;;10.00;73.77;98671.38;3589428;40;20040;-64
2021/05/26 04:33:29;;;;;;;5.30;2.22;;;;;;;10.13;73.91;98675.94;3589232;40;20043;-64
2021/05/26 04:35:56;;;;;;;9.50;3.08;;;;;;;10.21;73.49;98673.16;3598766;40;20048;-64
2021/05/26 04:38:23;;;;;;;6.95;2.38;;;;;;;10.25;73.21;98671.78;3598561;40;20321;-64
2021/05/26 04:40:52;;;;;;;4.03;1.92;;;;;;;10.36;73.43;98668.56;3589317;40;20056;-66
2021/05/26 04:43:19;;;;;;;9.27;2.58;;;;;;;10.33;73.58;98676.91;3598637;40;20029;-65
2021/05/26 04:45:47;;;;;;;9.27;2.63;;;;;;;10.23;73.79;98665.84;3598866;40;20075;-65
2021/05/26 04:48:16;;;;;;;7.82;2.08;;;;;;;10.19;73.78;98656.66;3598379;40;20401;-65
2021/05/26 04:50:44;;;;;;;5.57;2.10;;;;;;;10.19;74.12;98659.31;3598744;40;20048;-65
2021/05/26 04:53:11;;;;;;;4.28;2.10;;;;;;;10.21;73.98;98662.59;3589206;40;20040;-65
2021/05/26 04:55:38;;;;;;;6.72;2.70;;;;;;;10.21;74.14;98659.13;3589114;40;20058;-65
2021/05/26 04:58:08;;;;;;;5.32;2.40;;;;;;;10.23;74.20;98654.44;3598386;40;20047;-65
2021/05/26 05:00:35;;;;;;;5.60;1.90;;;;;;;10.26;74.28;98665.47;3598800;40;20043;-65
2021/05/26 05:03:03;;;;;;;7.93;2.75;;;;;;;10.29;74.09;98661.66;3598656;40;20067;-65
2021/05/26 05:05:32;;;;;;;5.05;1.90;;;;;;;10.29;74.27;98674.84;3589201;40;20050;-65
2021/05/26 05:08:01;;;;;;;5.10;2.10;;;;;;;10.16;74.43;98675.53;3598457;40;20039;-65
2021/05/26 05:10:28;;;;;;;5.80;1.90;;;;;;;10.11;74.89;98662.91;3589255;40;20044;-65
2021/05/26 05:12:55;;;;;;;4.28;2.40;;;;;;;10.15;74.41;98658.88;3598383;40;20055;-65
2021/05/26 05:15:26;;;;;;;4.68;2.00;;;;;;;10.07;74.75;98655.56;3589542;40;20055;-65
2021/05/26 05:17:54;;;;;;;4.70;1.92;;;;;;;10.04;74.63;98659.44;3589083;40;20020;-65
2021/05/26 05:20:22;;;;;;;3.08;1.77;;;;;;;10.11;74.66;98656.81;3598775;40;20408;-65
2021/05/26 05:22:52;;;;;;;4.32;1.52;;;;;;;10.23;74.43;98662.38;3598316;40;20397;-64
2021/05/26 05:25:20;;;;;;;6.95;2.47;;;;;;;10.32;74.13;98661.22;3598649;40;20055;-65
2021/05/26 05:27:47;;;;;;;4.63;1.85;;;;;;;10.35;74.03;98645.00;3598286;40;20052;-64
2021/05/26 05:30:16;;;;;;;7.32;3.60;;;;;;;10.45;73.62;98642.00;3598386;40;20044;-64
2021/05/26 05:32:43;;;;;;;4.15;2.15;;;;;;;10.48;73.73;98650.34;3589118;40;20051;-65
2021/05/26 05:35:11;;;;;;;4.55;2.00;;;;;;;10.54;73.72;98643.50;3598595;40;20347;-65
2021/05/26 05:37:38;;;;;;;6.63;1.83;;;;;;;10.54;73.37;98646.13;3598080;40;20048;-65
2021/05/26 05:40:08;;;;;;;4.35;2.20;;;;;;;10.62;73.23;98651.25;3598321;40;20047;-65
2021/05/26 05:42:35;;;;;;;4.75;2.10;;;;;;;10.75;72.93;98640.72;3598713;40;20050;-64
2021/05/26 05:45:04;;;;;;;4.10;2.20;;;;;;;10.93;72.84;98647.28;3598401;40;20037;-64
2021/05/26 05:47:32;;;;;;;4.13;1.80;;;;;;;11.04;72.58;98644.06;3597927;40;20047;-64
2021/05/26 05:49:59;;;;;;;7.10;2.15;;;;;;;11.08;72.64;98647.94;3598572;40;20394;-64
2021/05/26 05:52:26;;;;;;;8.18;2.60;;;;;;;11.05;71.94;98648.34;3598224;40;20044;-64
2021/05/26 05:54:54;;;;;;;9.82;2.67;;;;;;;10.96;71.84;98642.41;3588905;40;20044;-64
2021/05/26 05:57:22;;;;;;;5.50;1.60;;;;;;;10.99;71.64;98638.56;3598053;40;20044;-65
2021/05/26 05:59:49;;;;;;;7.85;2.30;;;;;;;11.07;71.90;98643.69;3598386;40;20043;-64
2021/05/26 06:02:16;;;;;;;7.68;2.70;;;;;;;11.02;71.65;98646.09;3598376;40;20048;-64
2021/05/26 06:04:43;;;;;;;4.43;1.90;;;;;;;10.94;71.13;98651.56;3598220;40;20044;-64
2021/05/26 06:07:11;;;;;;;7.13;2.53;;;;;;;10.89;71.51;98645.03;3598015;40;20052;-64
2021/05/26 06:09:38;;;;;;;7.13;2.63;;;;;;;10.96;71.38;98652.19;3598807;40;20040;-63
2021/05/26 06:12:06;;;;;;;5.95;2.38;;;;;;;11.04;71.19;98638.78;3599449;39;20324;-65
2021/05/26 06:14:34;;;;;;;6.75;1.77;;;;;;;11.16;70.32;98645.13;3599821;40;20048;-65
2021/05/26 06:17:01;;;;;;;7.68;1.98;;;;;;;11.33;70.40;98635.78;3599498;40;20396;-64
2021/05/26 06:19:28;;;;;;;4.88;1.70;;;;;;;11.55;69.68;98633.81;3599552;40;20044;-64
2021/05/26 06:21:56;;;;;;;6.80;1.90;;;;;;;11.57;69.18;98649.47;3599849;40;20035;-65
2021/05/26 06:24:23;;;;;;;5.82;2.38;;;;;;;11.47;69.72;98646.38;3599612;40;20059;-65
2021/05/26 06:26:50;;;;;;;7.28;1.73;;;;;;;11.33;69.96;98645.56;3599716;40;20040;-65
2021/05/26 06:29:18;;;;;;;3.25;1.77;;;;;;;11.34;70.17;98647.19;3599911;40;20048;-65
2021/05/26 06:31:46;;;;;;;5.63;1.73;;;;;;;11.22;69.62;98640.84;3599894;40;20032;-65
2021/05/26 06:34:13;;;;;;;6.57;1.83;;;;;;;11.37;69.90;98637.00;3599502;40;20043;-66
2021/05/26 06:36:41;;;;;;;6.93;1.95;;;;;;;11.53;69.66;98640.31;3599665;40;20340;-65
2021/05/26 06:39:08;;;;;;;3.75;1.73;;;;;;;11.46;69.45;98639.47;3599704;40;20059;-65
2021/05/26 06:41:36;;;;;;;3.17;1.98;;;;;;;11.43;69.69;98639.88;3599726;40;20040;-64
2021/05/26 06:44:03;;;;;;;6.53;2.00;;;;;;;11.49;69.70;98637.25;3590437;40;20072;-65
2021/05/26 06:46:31;;;;;;;4.78;1.70;;;;;;;11.52;69.39;98641.31;3599694;40;20320;-65
2021/05/26 06:48:59;;;;;;;6.03;2.38;;;;;;;11.53;69.89;98643.75;3599336;40;20324;-65
2021/05/26 06:51:26;;;;;;;4.55;1.45;;;;;;;11.63;69.42;98641.53;3599793;40;20055;-65
2021/05/26 06:53:55;;;;;;;4.40;1.67;;;;;;;11.50;69.55;98632.75;3599351;40;20048;-66
2021/05/26 06:56:22;;;;;;;2.25;1.45;;;;;;;11.44;70.10;98634.38;3599479;40;20120;-65
2021/05/26 06:58:50;;;;;;;5.32;1.70;;;;;;;11.37;69.78;98633.56;3599252;40;20130;-66
2021/05/26 07:01:24;;;;;;;4.63;1.80;;;;;;;11.48;69.84;98632.16;3599463;40;20048;-65
2021/05/26 07:03:51;;;;;;;4.50;1.70;;;;;;;11.47;70.46;98622.56;3599363;40;20040;-66
2021/05/26 07:06:20;;;;;;;5.22;1.60;;;;;;;11.52;70.03;98625.44;3599366;40;20056;-65
2021/05/26 07:08:47;;;;;;;5.10;1.45;;;;;;;11.48;70.31;98621.56;3589721;40;20043;-65
2021/05/26 07:11:14;;;;;;;4.93;1.67;;;;;;;11.35;69.81;98622.38;3599192;40;20048;-65
2021/05/26 07:13:41;;;;;;;5.93;1.75;;;;;;;11.37;70.26;98615.03;3599221;40;20129;-65
2021/05/26 07:16:08;;;;;;;3.90;1.70;;;;;;;11.30;70.49;98617.66;3599178;40;20048;-66
2021/05/26 07:18:36;;;;;;;3.92;1.55;;;;;;;11.16;71.13;98614.19;3598972;40;20423;-66
2021/05/26 07:21:03;;;;;;;4.93;1.85;;;;;;;11.08;71.01;98603.78;3599524;40;20054;-65
2021/05/26 07:23:32;;;;;;;4.18;1.40;;;;;;;10.98;71.18;98611.31;3599424;39;20044;-65
2021/05/26 07:26:00;;;;;;;3.88;1.83;;;;;;;10.88;71.47;98616.16;3599226;40;20401;-65
2021/05/26 07:28:27;;;;;;;4.57;1.80;;;;;;;10.97;71.61;98616.78;3598821;40;20394;-65
2021/05/26 07:30:54;;;;;;;5.60;1.80;;;;;;;10.97;71.84;98607.03;3599463;40;20047;-65
2021/05/26 07:33:21;;;;;;;4.70;1.88;;;;;;;10.90;71.84;98607.03;3599290;40;20052;-65
2021/05/26 07:35:49;;;;;;;7.50;3.65;;;;;;;10.81;71.99;98612.66;3599057;40;20055;-65
2021/05/26 07:38:37;;;;;;;2.00;1.65;;;;;;;10.79;72.01;98615.53;3589517;40;20059;-66
2021/05/26 07:41:04;;;;;;;3.72;1.60;;;;;;;10.77;71.90;98600.84;3599150;40;20036;-66
2021/05/26 07:43:33;;;;;;;3.60;1.80;;;;;;;10.78;72.16;98610.44;3599198;40;20036;-65
2021/05/26 07:46:01;;;;;;;2.88;1.60;;;;;;;10.82;71.94;98601.09;3599156;40;20054;-66
2021/05/26 07:48:29;;;;;;;5.63;2.08;;;;;;;10.89;72.10;98605.38;3599434;40;20047;-66
2021/05/26 07:50:56;;;;;;;6.32;2.17;;;;;;;11.01;71.98;98600.31;3598945;40;20125;-65
2021/05/26 07:53:24;;;;;;;4.35;2.08;;;;;;;11.06;72.17;98603.19;3589768;40;20040;-65
2021/05/26 07:55:52;;;;;;;7.85;2.30;;;;;;;11.13;71.94;98603.19;3599423;40;20083;-65
2021/05/26 07:58:20;;;;;;;3.45;1.90;;;;;;;11.22;71.81;98604.63;3600184;40;20439;-67
2021/05/26 08:00:50;;;;;;;3.88;1.92;;;;;;;11.34;71.39;98605.66;3599457;40;20044;-65
2021/05/26 08:03:18;;;;;;;4.35;1.92;;;;;;;11.26;71.51;98597.91;3598912;40;20041;-65
2021/05/26 08:05:45;;;;;;;4.25;1.70;;;;;;;11.33;71.60;98600.56;3599078;40;20128;-66
2021/05/26 08:08:13;;;;;;;5.75;2.00;;;;;;;11.39;71.82;98600.59;3598715;40;20052;-66
2021/05/26 08:10:41;;;;;;;6.63;1.95;;;;;;;11.39;71.11;98605.88;3598858;40;20052;-65
2021/05/26 08:13:09;;;;;;;5.05;2.80;;;;;;;11.47;70.97;98601.38;3599007;40;20437;-65
2021/05/26 08:15:37;;;;;;;5.13;2.50;;;;;;;11.43;71.02;98610.75;3598932;40;20052;-66
2021/05/26 08:18:09;;;;;;;5.50;2.50;;;;;;;11.49;71.24;98604.66;3598710;40;20048;-66
2021/05/26 08:20:37;;;;;;;5.75;2.35;;;;;;;11.61;71.05;98608.34;3598995;40;20132;-65
2021/05/26 08:23:04;;;;;;;4.72;1.92;;;;;;;11.69;71.18;98597.53;3598934;40;20049;-65
2021/05/26 08:25:31;;;;;;;4.55;2.05;;;;;;;11.71;71.00;98599.97;3598996;40;20048;-65
2021/05/26 08:27:58;;;;;;;3.70;1.67;;;;;;;11.61;71.33;98598.56;3598678;40;20132;-66
2021/05/26 08:30:26;;;;;;;3.78;1.58;;;;;;;11.51;71.78;98597.31;3598926;40;20048;-65
2021/05/26 08:32:56;;;;;;;8.88;2.28;;;;;;;11.61;72.17;98597.75;3598811;39;20059;-64
2021/05/26 08:35:23;;;;;;;5.05;2.10;;;;;;;11.76;71.94;98589.59;3598536;40;20297;-64
2021/05/26 08:37:51;;;;;;;4.22;1.70;;;;;;;11.91;72.00;98587.56;3598687;40;20415;-65
2021/05/26 08:40:19;;;;;;;3.65;1.65;;;;;;;11.97;71.82;98586.75;3598843;40;20052;-65
2021/05/26 08:42:47;;;;;;;2.92;2.53;;;;;;;12.09;71.46;98593.03;3598841;40;20310;-64
2021/05/26 08:45:16;;;;;;;3.22;1.42;;;;;;;12.09;71.53;98585.09;3665198;22;20063;-61
2021/05/26 08:47:45;;;;;;;4.18;1.75;;;;;;;12.21;72.20;98579.16;3610095;39;20044;-62
2021/05/26 08:50:15;;;;;;;4.72;1.80;;;;;;;12.21;72.42;98579.16;3610523;39;20047;-62
2021/05/26 08:52:44;;;;;;;3.20;1.40;;;;;;;12.18;72.33;98580.38;3610179;39;20117;-61
2021/05/26 08:55:12;;;;;;;2.28;1.60;;;;;;;12.11;73.00;98566.31;3609701;39;20087;-62
2021/05/26 08:57:40;;;;;;;2.25;1.63;;;;;;;12.09;72.80;98571.03;3610003;39;20047;-62
2021/05/26 09:00:08;;;;;;;6.47;4.72;;;;;;;12.11;73.87;98571.63;3610112;39;20055;-63
2021/05/26 09:02:36;;;;;;;2.58;1.50;;;;;;;12.21;73.53;98558.75;3609786;39;20377;-62
2021/05/26 09:05:05;;;;;;;2.10;1.30;;;;;;;12.26;73.52;98564.25;3609878;39;20069;-62
2021/05/26 09:07:33;;;;;;;2.35;1.30;;;;;;;12.34;73.40;98566.66;3609294;39;20056;-62
2021/05/26 09:10:02;;;;;;;1.67;1.17;;;;;;;12.44;73.35;98563.56;3609269;39;20088;-63
2021/05/26 09:12:32;;;;;;;2.90;1.20;;;;;;;12.42;72.98;98562.97;3609447;39;20327;-62
2021/05/26 09:15:04;;;;;;;2.38;1.00;;;;;;;12.43;72.65;98556.63;3609138;39;20140;-62
2021/05/26 09:17:33;;;;;;;1.25;1.00;;;;;;;12.49;72.78;98560.25;3608413;39;20074;-62
2021/05/26 09:20:23;;;;;;;3.03;1.40;;;;;;;12.57;72.50;98555.56;3608754;39;20059;-62
2021/05/26 09:22:59;;;;;;;2.17;1.00;;;;;;;12.57;72.36;98550.25;3609276;39;20054;-61
2021/05/26 09:25:27;;;;;;;2.55;1.38;;;;;;;12.45;72.71;98549.28;3608746;39;20310;-61
2021/05/26 09:28:17;;;;;;;3.03;1.20;;;;;;;12.60;72.21;98549.00;3608381;39;20059;-61
2021/05/26 09:30:50;;;;;;;1.67;1.33;;;;;;;12.80;71.58;98554.22;3608778;39;20043;-61
2021/05/26 09:33:26;;;;;;;3.50;0.95;;;;;;;12.83;72.03;98559.09;3608703;39;20096;-61
2021/05/26 09:36:12;;;;;;;1.02;0.93;;;;;;;12.69;71.53;98553.03;3609291;39;20052;-64
2021/05/26 09:38:41;;;;;;;1.58;0.82;;;;;;;12.59;71.93;98560.66;3611403;39;20058;-61
2021/05/26 09:41:11;;;;;;;1.73;0.90;;;;;;;12.44;71.43;98550.28;3609376;39;20071;-62
2021/05/26 09:43:40;;;;;;;0.85;0.85;;;;;;;12.29;71.49;98544.47;3609262;39;20036;-62
2021/05/26 09:46:18;;;;;;;1.23;0.90;;;;;;;12.30;72.26;98546.09;3610641;39;20085;-62
2021/05/26 09:49:06;;;;;;;1.23;0.85;;;;;;;12.26;72.29;98539.59;3610608;39;20044;-62
2021/05/26 09:51:35;;;;;;;1.20;1.10;;;;;;;12.19;72.62;98538.78;3611050;39;20080;-62
2021/05/26 09:54:10;;;;;;;1.23;0.80;;;;;;;12.28;72.60;98542.81;3610138;39;20050;-62
2021/05/26 09:56:38;;;;;;;0.70;0.70;;;;;;;12.22;72.35;98533.88;3610391;39;20147;-62
2021/05/26 09:59:05;;;;;;;2.38;1.02;;;;;;;12.26;72.39;98545.69;3609671;39;20059;-62
2021/05/26 10:01:34;;;;;;;4.82;2.45;;;;;;;12.24;72.67;98536.31;3610601;39;20405;-62
2021/05/26 10:04:02;;;;;;;5.07;2.35;;;;;;;12.34;72.65;98542.81;3610937;39;20046;-62
2021/05/26 10:06:30;;;;;;;1.50;1.00;;;;;;;12.36;72.57;98539.94;3610973;39;20385;-63
2021/05/26 10:09:21;;;;;;;1.23;0.80;;;;;;;12.31;72.51;98550.34;3610752;39;20059;-62
2021/05/26 10:11:56;;;;;;;1.23;0.90;;;;;;;12.20;73.88;98546.50;3601437;39;20050;-63
2021/05/26 10:14:25;;;;;;;1.75;0.93;;;;;;;12.15;73.86;98539.19;3610797;39;20054;-63
2021/05/26 10:16:55;;;;;;;1.92;1.13;;;;;;;12.19;74.36;98541.44;3610816;39;20047;-62
2021/05/26 10:19:23;;;;;;;1.23;0.90;;;;;;;12.16;73.88;98540.00;3610804;39;20043;-62
2021/05/26 10:21:51;;;;;;;0.90;0.90;;;;;;;12.06;73.94;98544.94;3610438;39;20047;-62
2021/05/26 10:24:20;;;;;;;1.73;1.10;;;;;;;12.10;74.30;98531.06;3600550;39;20056;-62
2021/05/26 10:26:56;;;;;;;1.00;0.90;;;;;;;12.22;74.03;98531.22;3610542;39;20132;-62
2021/05/26 10:29:39;;;;;;;0.90;0.88;;;;;;;12.40;73.68;98535.84;3610135;39;20043;-63
2021/05/26 10:32:09;;;;;;;0.80;0.80;;;;;;;12.38;73.03;98533.41;3600917;39;20063;-62
2021/05/26 10:35:07;;;;;;;1.13;1.10;;;;;;;12.36;73.84;98532.78;3610200;39;20353;-62
2021/05/26 10:37:38;;;;;;;1.55;1.00;;;;;;;12.46;74.77;98526.25;3609703;39;20075;-62
2021/05/26 10:40:33;;;;;;;1.27;0.90;;;;;;;12.48;74.85;98525.00;3609936;39;20051;-62
2021/05/26 10:43:28;;;;;;;1.52;0.95;;;;;;;12.35;75.06;98530.34;3600627;39;20051;-62
2021/05/26 10:45:57;;;;;;;2.70;2.28;;;;;;;12.36;75.67;98530.13;3610638;39;20043;-63
2021/05/26 10:49:04;;;;;;;1.88;1.10;;;;;;;12.38;75.56;98536.06;3600861;39;20101;-63
2021/05/26 10:52:04;;;;;;;1.33;1.23;;;;;;;12.42;74.76;98530.34;3610549;39;20047;-62
2021/05/26 10:55:08;;;;;;;2.03;1.17;;;;;;;12.39;74.50;98529.72;3600237;39;20072;-62
2021/05/26 10:58:11;;;;;;;1.40;1.30;;;;;;;12.56;74.64;98524.75;3600255;39;20047;-62
2021/05/26 11:00:40;;;;;;;2.58;1.58;;;;;;;12.67;74.28;98517.97;3609781;39;20078;-62
2021/05/26 11:03:41;;;;;;;1.20;1.10;;;;;;;12.66;73.67;98526.97;3610467;39;20040;-62
2021/05/26 11:06:39;;;;;;;3.10;1.67;;;;;;;12.78;73.37;98522.59;3610600;39;20406;-62
2021/05/26 11:09:08;;;;;;;1.80;1.00;;;;;;;12.88;72.86;98514.16;3610174;39;20047;-62
2021/05/26 11:11:49;;;;;;;1.77;0.95;;;;;;;12.80;72.55;98519.72;3610774;39;20210;-62
2021/05/26 11:14:29;;;;;;;1.60;1.50;;;;;;;12.94;72.44;98515.13;3610585;39;20124;-62
2021/05/26 11:17:39;;;;;;;1.30;1.20;;;;;;;13.09;72.36;98513.81;3600778;39;20051;-62
2021/05/26 11:20:15;;;;;;;1.15;1.05;;;;;;;13.32;71.92;98518.56;3610698;39;20050;-62
2021/05/26 11:22:42;;;;;;;1.10;1.00;;;;;;;13.47;71.53;98510.28;3610701;39;20102;-62
2021/05/26 11:25:12;;;;;;;2.17;1.13;;;;;;;13.44;71.80;98518.66;3610444;39;20128;-62
2021/05/26 11:27:50;;;;;;;1.95;0.95;;;;;;;13.52;71.66;98504.31;3610080;39;20055;-62
2021/05/26 11:30:23;;;;;;;2.65;1.55;;;;;;;13.48;72.14;98509.25;3610807;39;20051;-63
2021/05/26 11:32:50;;;;;;;6.00;1.20;;;;;;;13.48;71.87;98509.25;3600876;39;20163;-62
2021/05/26 11:35:18;;;;;;;2.05;1.85;;;;;;;13.31;71.76;98510.84;3610517;39;20423;-62
2021/05/26 11:37:45;;;;;;;5.15;4.05;;;;;;;13.46;72.04;98510.47;3610234;39;20048;-62
2021/05/26 11:40:33;;;;;;;3.10;2.70;;;;;;;13.77;71.53;98510.38;3610582;39;20049;-62
2021/05/26 11:43:02;;;;;;;3.47;2.65;;;;;;;13.87;70.94;98501.91;3609738;39;20055;-62
2021/05/26 11:45:31;;;;;;;2.35;2.15;;;;;;;14.03;70.18;98497.84;3609817;39;20050;-61
2021/05/26 11:47:59;;;;;;;2.22;1.20;;;;;;;14.30;70.28;98501.00;3609891;39;20043;-61
2021/05/26 11:50:29;;;;;;;2.05;1.15;;;;;;;14.10;70.02;98510.03;3609896;39;20084;-62
2021/05/26 11:53:16;;;;;;;1.55;1.10;;;;;;;14.04;70.42;98504.78;3611367;39;20043;-61